ilmateenistus.ee keskkonnaagentuur.ee
EETN Tallinna lennuväli
FTEO31 EETN 281700
TAF EETN 281700Z 2818/2918 11007KT 9999 SCT030 PROB40 TEMPO 2818/2821
    SCT025CB BECMG 2821/2823 BKN015 BKN025 TEMPO 2901/2907 3000 BR BKN004
    OVC020 TEMPO 2907/2914 6000 SHRA BKN006 SCT015CB BECMG 2914/2916
    BKN004 OVC010=

METAR EETN 281750Z 10004KT CAVOK 13/10 Q1017 NOSIG=
Tallinna lennuväli
EEKA Kärdla lennuväli
FCEO32 EETN 281200 AAA
TAF AMD EEKA 281600Z 2813/2819 CNL=

METAR EEKA 281750Z NIL=
Kärdla lennuväli
EEKE Kuressaare lennuväli
FCEO32 EETN 281400 AAA
TAF AMD EEKE 281800Z 2815/2821 CNL=

METAR EEKE 281750Z AUTO 12006KT 9999NDV -RA OVC007 14/13 Q1017=
Kuressaare lennuväli
EEPU Pärnu lennuväli
METAR EEPU 281750Z NIL=
Pärnu lennuväli
EETU Tartu lennuväli
METAR EETU 281750Z AUTO 11006KT 9999 OVC014/// 12/10 Q1018=
Tartu lennuväli
EEEI Ämari lennuväli
METAR EEEI 281750Z 07006KT CAVOK 14/10 Q1017 NOSIG=
Ämari lennuväli